sensor_id;sensor_type;location;lat;lon;timestamp;temperature;humidity
30399;DHT22;17195;50.838;7.214;2022-12-17T00:01:14;-0.90;99.90
30399;DHT22;17195;50.838;7.214;2022-12-17T00:03:58;-1.00;99.90
30399;DHT22;17195;50.838;7.214;2022-12-17T00:06:44;-1.10;99.90
30399;DHT22;17195;50.838;7.214;2022-12-17T00:09:28;-1.10;99.90
30399;DHT22;17195;50.838;7.214;2022-12-17T00:12:13;-1.10;99.90
30399;DHT22;17195;50.838;7.214;2022-12-17T00:14:57;-1.10;99.90
30399;DHT22;17195;50.838;7.214;2022-12-17T00:17:41;-1.10;99.90
30399;DHT22;17195;50.838;7.214;2022-12-17T00:20:25;-1.10;99.90
30399;DHT22;17195;50.838;7.214;2022-12-17T00:23:10;-1.10;99.90
30399;DHT22;17195;50.838;7.214;2022-12-17T00:25:55;-1.10;99.90
30399;DHT22;17195;50.838;7.214;2022-12-17T00:28:39;-1.10;99.90
30399;DHT22;17195;50.838;7.214;2022-12-17T00:31:28;-1.00;99.90
30399;DHT22;17195;50.838;7.214;2022-12-17T00:34:13;-0.90;99.90
30399;DHT22;17195;50.838;7.214;2022-12-17T00:36:58;-0.90;99.90
30399;DHT22;17195;50.838;7.214;2022-12-17T00:39:42;-0.80;99.90
30399;DHT22;17195;50.838;7.214;2022-12-17T00:42:26;-0.90;99.90
30399;DHT22;17195;50.838;7.214;2022-12-17T00:45:11;-0.80;99.90
30399;DHT22;17195;50.838;7.214;2022-12-17T00:47:55;-0.80;99.90
30399;DHT22;17195;50.838;7.214;2022-12-17T00:50:39;-0.80;99.90
30399;DHT22;17195;50.838;7.214;2022-12-17T00:53:23;-0.80;99.90
30399;DHT22;17195;50.838;7.214;2022-12-17T00:56:08;-0.80;99.90
30399;DHT22;17195;50.838;7.214;2022-12-17T00:58:52;-0.80;99.90
30399;DHT22;17195;50.838;7.214;2022-12-17T01:01:36;-0.90;99.90
30399;DHT22;17195;50.838;7.214;2022-12-17T01:04:20;-0.90;99.90
30399;DHT22;17195;50.838;7.214;2022-12-17T01:07:05;-0.90;99.90
30399;DHT22;17195;50.838;7.214;2022-12-17T01:09:49;-1.00;99.90
30399;DHT22;17195;50.838;7.214;2022-12-17T01:12:33;-1.00;99.90
30399;DHT22;17195;50.838;7.214;2022-12-17T01:15:18;-1.00;99.90
30399;DHT22;17195;50.838;7.214;2022-12-17T01:18:02;-1.10;99.90
30399;DHT22;17195;50.838;7.214;2022-12-17T01:20:46;-1.00;99.90
30399;DHT22;17195;50.838;7.214;2022-12-17T01:23:31;-1.20;99.90
30399;DHT22;17195;50.838;7.214;2022-12-17T01:26:15;-1.10;99.90
30399;DHT22;17195;50.838;7.214;2022-12-17T01:28:59;-1.10;99.90
30399;DHT22;17195;50.838;7.214;2022-12-17T01:31:43;-1.10;99.90
30399;DHT22;17195;50.838;7.214;2022-12-17T01:34:28;-1.10;99.90
30399;DHT22;17195;50.838;7.214;2022-12-17T01:37:12;-1.20;99.90
30399;DHT22;17195;50.838;7.214;2022-12-17T01:39:56;-1.20;99.90
30399;DHT22;17195;50.838;7.214;2022-12-17T01:42:46;-1.20;99.90
30399;DHT22;17195;50.838;7.214;2022-12-17T01:45:39;-1.10;99.90
30399;DHT22;17195;50.838;7.214;2022-12-17T01:48:29;-1.10;99.90
30399;DHT22;17195;50.838;7.214;2022-12-17T01:51:15;-1.10;99.90
30399;DHT22;17195;50.838;7.214;2022-12-17T01:54:01;-1.10;99.90
30399;DHT22;17195;50.838;7.214;2022-12-17T01:56:46;-1.20;99.90
30399;DHT22;17195;50.838;7.214;2022-12-17T01:59:46;-1.20;99.90
30399;DHT22;17195;50.838;7.214;2022-12-17T02:02:33;-1.20;99.90
30399;DHT22;17195;50.838;7.214;2022-12-17T02:05:22;-1.30;99.90
30399;DHT22;17195;50.838;7.214;2022-12-17T02:08:23;-1.30;99.90
30399;DHT22;17195;50.838;7.214;2022-12-17T02:14:19;-1.30;99.90
30399;DHT22;17195;50.838;7.214;2022-12-17T02:17:07;-1.50;99.90
30399;DHT22;17195;50.838;7.214;2022-12-17T02:26:35;-1.50;99.90
30399;DHT22;17195;50.838;7.214;2022-12-17T02:29:21;-1.40;99.90
30399;DHT22;17195;50.838;7.214;2022-12-17T02:32:08;-1.50;99.90
30399;DHT22;17195;50.838;7.214;2022-12-17T02:34:53;-1.50;99.90
30399;DHT22;17195;50.838;7.214;2022-12-17T02:37:38;-1.60;99.90
30399;DHT22;17195;50.838;7.214;2022-12-17T02:40:23;-1.70;99.90
30399;DHT22;17195;50.838;7.214;2022-12-17T02:43:09;-1.70;99.90
30399;DHT22;17195;50.838;7.214;2022-12-17T02:45:54;-1.60;99.90
30399;DHT22;17195;50.838;7.214;2022-12-17T02:48:39;-1.60;99.90
30399;DHT22;17195;50.838;7.214;2022-12-17T02:51:24;-1.60;99.90
30399;DHT22;17195;50.838;7.214;2022-12-17T02:54:08;-1.60;99.90
30399;DHT22;17195;50.838;7.214;2022-12-17T02:56:53;-1.60;99.90
30399;DHT22;17195;50.838;7.214;2022-12-17T02:59:37;-1.70;99.90
30399;DHT22;17195;50.838;7.214;2022-12-17T03:02:21;-1.70;99.90
30399;DHT22;17195;50.838;7.214;2022-12-17T03:05:05;-1.70;99.90
30399;DHT22;17195;50.838;7.214;2022-12-17T03:07:50;-1.80;99.90
30399;DHT22;17195;50.838;7.214;2022-12-17T03:10:34;-1.90;99.90
30399;DHT22;17195;50.838;7.214;2022-12-17T03:13:26;-2.00;99.90
30399;DHT22;17195;50.838;7.214;2022-12-17T03:16:13;-2.00;99.90
30399;DHT22;17195;50.838;7.214;2022-12-17T03:18:58;-1.90;99.90
30399;DHT22;17195;50.838;7.214;2022-12-17T03:21:42;-1.90;99.90
30399;DHT22;17195;50.838;7.214;2022-12-17T03:24:27;-2.00;99.90
30399;DHT22;17195;50.838;7.214;2022-12-17T03:27:11;-1.90;99.90
30399;DHT22;17195;50.838;7.214;2022-12-17T03:29:55;-2.00;99.90
30399;DHT22;17195;50.838;7.214;2022-12-17T03:32:40;-2.00;99.90
30399;DHT22;17195;50.838;7.214;2022-12-17T03:35:24;-2.00;99.90
30399;DHT22;17195;50.838;7.214;2022-12-17T03:38:09;-2.00;99.90
30399;DHT22;17195;50.838;7.214;2022-12-17T03:40:54;-2.00;99.90
30399;DHT22;17195;50.838;7.214;2022-12-17T03:43:38;-2.10;99.90
30399;DHT22;17195;50.838;7.214;2022-12-17T03:46:22;-2.00;99.90
30399;DHT22;17195;50.838;7.214;2022-12-17T03:49:06;-2.10;99.90
30399;DHT22;17195;50.838;7.214;2022-12-17T03:51:51;-2.20;99.90
30399;DHT22;17195;50.838;7.214;2022-12-17T03:54:35;-2.10;99.90
30399;DHT22;17195;50.838;7.214;2022-12-17T03:57:19;-2.10;99.90
30399;DHT22;17195;50.838;7.214;2022-12-17T04:00:04;-2.00;99.90
30399;DHT22;17195;50.838;7.214;2022-12-17T04:02:49;-2.10;99.90
30399;DHT22;17195;50.838;7.214;2022-12-17T04:05:33;-2.10;99.90
30399;DHT22;17195;50.838;7.214;2022-12-17T04:08:17;-2.10;99.90
30399;DHT22;17195;50.838;7.214;2022-12-17T04:11:01;-2.10;99.90
30399;DHT22;17195;50.838;7.214;2022-12-17T04:13:46;-2.10;99.90
30399;DHT22;17195;50.838;7.214;2022-12-17T04:16:30;-2.10;99.90
30399;DHT22;17195;50.838;7.214;2022-12-17T04:19:14;-2.10;99.90
30399;DHT22;17195;50.838;7.214;2022-12-17T04:21:58;-2.10;99.90
30399;DHT22;17195;50.838;7.214;2022-12-17T04:24:43;-2.30;99.90
30399;DHT22;17195;50.838;7.214;2022-12-17T04:27:27;-2.30;99.90
30399;DHT22;17195;50.838;7.214;2022-12-17T04:30:11;-2.30;99.90
30399;DHT22;17195;50.838;7.214;2022-12-17T04:33:02;-2.30;99.90
30399;DHT22;17195;50.838;7.214;2022-12-17T04:35:46;-2.30;99.90
30399;DHT22;17195;50.838;7.214;2022-12-17T04:38:31;-2.30;99.90
30399;DHT22;17195;50.838;7.214;2022-12-17T04:41:15;-2.20;99.90
30399;DHT22;17195;50.838;7.214;2022-12-17T04:43:59;-2.30;99.90
30399;DHT22;17195;50.838;7.214;2022-12-17T04:46:43;-2.30;99.90
30399;DHT22;17195;50.838;7.214;2022-12-17T04:49:28;-2.30;99.90
30399;DHT22;17195;50.838;7.214;2022-12-17T04:52:12;-2.30;99.90
30399;DHT22;17195;50.838;7.214;2022-12-17T04:54:56;-2.40;99.90
30399;DHT22;17195;50.838;7.214;2022-12-17T04:57:40;-2.30;99.90
30399;DHT22;17195;50.838;7.214;2022-12-17T05:00:25;-2.40;99.90
30399;DHT22;17195;50.838;7.214;2022-12-17T05:03:11;-2.40;99.90
30399;DHT22;17195;50.838;7.214;2022-12-17T05:05:56;-2.40;99.90
30399;DHT22;17195;50.838;7.214;2022-12-17T05:08:41;-2.40;99.90
30399;DHT22;17195;50.838;7.214;2022-12-17T05:11:25;-2.40;99.90
30399;DHT22;17195;50.838;7.214;2022-12-17T05:14:09;-2.40;99.90
30399;DHT22;17195;50.838;7.214;2022-12-17T05:16:53;-2.40;99.90
30399;DHT22;17195;50.838;7.214;2022-12-17T05:19:38;-2.50;99.90
30399;DHT22;17195;50.838;7.214;2022-12-17T05:22:22;-2.50;99.90
30399;DHT22;17195;50.838;7.214;2022-12-17T05:25:06;-2.50;99.90
30399;DHT22;17195;50.838;7.214;2022-12-17T05:27:50;-2.50;99.90
30399;DHT22;17195;50.838;7.214;2022-12-17T05:30:34;-2.50;99.90
30399;DHT22;17195;50.838;7.214;2022-12-17T05:33:18;-2.50;99.90
30399;DHT22;17195;50.838;7.214;2022-12-17T05:36:03;-2.50;99.90
30399;DHT22;17195;50.838;7.214;2022-12-17T05:38:48;-2.50;99.90
30399;DHT22;17195;50.838;7.214;2022-12-17T05:41:32;-2.50;99.90
30399;DHT22;17195;50.838;7.214;2022-12-17T05:44:17;-2.40;99.90
30399;DHT22;17195;50.838;7.214;2022-12-17T05:47:01;-2.50;99.90
30399;DHT22;17195;50.838;7.214;2022-12-17T05:49:45;-2.40;99.90
30399;DHT22;17195;50.838;7.214;2022-12-17T05:52:30;-2.40;99.90
30399;DHT22;17195;50.838;7.214;2022-12-17T05:55:14;-2.40;99.90
30399;DHT22;17195;50.838;7.214;2022-12-17T05:58:04;-2.40;99.90
30399;DHT22;17195;50.838;7.214;2022-12-17T06:00:49;-2.40;99.90
30399;DHT22;17195;50.838;7.214;2022-12-17T06:03:33;-2.40;99.90
30399;DHT22;17195;50.838;7.214;2022-12-17T06:06:17;-2.40;99.90
30399;DHT22;17195;50.838;7.214;2022-12-17T06:09:02;-2.40;99.90
30399;DHT22;17195;50.838;7.214;2022-12-17T06:12:00;-2.30;99.90
30399;DHT22;17195;50.838;7.214;2022-12-17T06:14:44;-2.30;99.90
30399;DHT22;17195;50.838;7.214;2022-12-17T06:17:28;-2.30;99.90
30399;DHT22;17195;50.838;7.214;2022-12-17T06:20:12;-2.30;99.90
30399;DHT22;17195;50.838;7.214;2022-12-17T06:23:09;-2.30;99.90
30399;DHT22;17195;50.838;7.214;2022-12-17T06:25:55;-2.20;99.90
30399;DHT22;17195;50.838;7.214;2022-12-17T06:28:40;-2.30;99.90
30399;DHT22;17195;50.838;7.214;2022-12-17T06:31:26;-2.30;99.90
30399;DHT22;17195;50.838;7.214;2022-12-17T06:34:10;-2.30;99.90
30399;DHT22;17195;50.838;7.214;2022-12-17T06:36:55;-2.30;99.90
30399;DHT22;17195;50.838;7.214;2022-12-17T06:39:39;-2.20;99.90
30399;DHT22;17195;50.838;7.214;2022-12-17T06:42:24;-2.30;99.90
30399;DHT22;17195;50.838;7.214;2022-12-17T06:45:08;-2.30;99.90
30399;DHT22;17195;50.838;7.214;2022-12-17T06:48:00;-2.30;99.90
30399;DHT22;17195;50.838;7.214;2022-12-17T06:50:44;-2.30;99.90
30399;DHT22;17195;50.838;7.214;2022-12-17T06:53:29;-2.40;99.90
30399;DHT22;17195;50.838;7.214;2022-12-17T06:56:26;-2.40;99.90
30399;DHT22;17195;50.838;7.214;2022-12-17T06:59:11;-2.50;99.90
30399;DHT22;17195;50.838;7.214;2022-12-17T07:01:55;-2.50;99.90
30399;DHT22;17195;50.838;7.214;2022-12-17T07:04:39;-2.60;99.90
30399;DHT22;17195;50.838;7.214;2022-12-17T07:07:23;-2.50;99.90
30399;DHT22;17195;50.838;7.214;2022-12-17T07:10:07;-2.60;99.90
30399;DHT22;17195;50.838;7.214;2022-12-17T07:12:52;-2.50;99.90
30399;DHT22;17195;50.838;7.214;2022-12-17T07:15:36;-2.50;99.90
30399;DHT22;17195;50.838;7.214;2022-12-17T07:18:20;-2.50;99.90
30399;DHT22;17195;50.838;7.214;2022-12-17T07:21:04;-2.60;99.90
30399;DHT22;17195;50.838;7.214;2022-12-17T07:23:48;-2.70;99.90
30399;DHT22;17195;50.838;7.214;2022-12-17T07:26:32;-2.60;99.90
30399;DHT22;17195;50.838;7.214;2022-12-17T07:29:17;-2.60;99.90
30399;DHT22;17195;50.838;7.214;2022-12-17T07:32:03;-2.70;99.90
30399;DHT22;17195;50.838;7.214;2022-12-17T07:34:54;-2.70;99.90
30399;DHT22;17195;50.838;7.214;2022-12-17T07:37:39;-2.60;99.90
30399;DHT22;17195;50.838;7.214;2022-12-17T07:40:23;-2.70;99.90
30399;DHT22;17195;50.838;7.214;2022-12-17T07:43:11;-2.60;99.90
30399;DHT22;17195;50.838;7.214;2022-12-17T07:45:55;-2.70;99.90
30399;DHT22;17195;50.838;7.214;2022-12-17T07:48:39;-2.70;99.90
30399;DHT22;17195;50.838;7.214;2022-12-17T07:51:24;-2.70;99.90
30399;DHT22;17195;50.838;7.214;2022-12-17T07:54:08;-2.70;99.90
30399;DHT22;17195;50.838;7.214;2022-12-17T07:56:52;-2.60;99.90
30399;DHT22;17195;50.838;7.214;2022-12-17T07:59:36;-2.60;99.90
30399;DHT22;17195;50.838;7.214;2022-12-17T08:02:20;-2.70;99.90
30399;DHT22;17195;50.838;7.214;2022-12-17T08:05:05;-2.70;99.90
30399;DHT22;17195;50.838;7.214;2022-12-17T08:07:49;-2.70;99.90
30399;DHT22;17195;50.838;7.214;2022-12-17T08:10:35;-2.70;99.90
30399;DHT22;17195;50.838;7.214;2022-12-17T08:13:19;-2.70;99.90
30399;DHT22;17195;50.838;7.214;2022-12-17T08:16:03;-2.70;99.90
30399;DHT22;17195;50.838;7.214;2022-12-17T08:18:48;-2.70;99.90
30399;DHT22;17195;50.838;7.214;2022-12-17T08:21:32;-2.60;99.90
30399;DHT22;17195;50.838;7.214;2022-12-17T08:24:16;-2.60;99.90
30399;DHT22;17195;50.838;7.214;2022-12-17T08:27:00;-2.60;99.90
30399;DHT22;17195;50.838;7.214;2022-12-17T08:29:44;-2.50;99.90
30399;DHT22;17195;50.838;7.214;2022-12-17T08:32:29;-2.50;99.90
30399;DHT22;17195;50.838;7.214;2022-12-17T08:35:13;-2.50;99.90
30399;DHT22;17195;50.838;7.214;2022-12-17T08:38:02;-2.50;99.90
30399;DHT22;17195;50.838;7.214;2022-12-17T08:40:46;-2.40;99.90
30399;DHT22;17195;50.838;7.214;2022-12-17T08:43:30;-2.50;99.90
30399;DHT22;17195;50.838;7.214;2022-12-17T08:46:14;-2.40;99.90
30399;DHT22;17195;50.838;7.214;2022-12-17T08:48:59;-2.60;99.90
30399;DHT22;17195;50.838;7.214;2022-12-17T08:51:43;-2.50;99.90
30399;DHT22;17195;50.838;7.214;2022-12-17T08:54:27;-2.50;99.90
30399;DHT22;17195;50.838;7.214;2022-12-17T08:57:11;-2.60;99.90
30399;DHT22;17195;50.838;7.214;2022-12-17T08:59:56;-2.60;99.90
30399;DHT22;17195;50.838;7.214;2022-12-17T09:02:40;-2.50;99.90
30399;DHT22;17195;50.838;7.214;2022-12-17T09:05:24;-2.40;99.90
30399;DHT22;17195;50.838;7.214;2022-12-17T09:08:08;-2.40;99.90
30399;DHT22;17195;50.838;7.214;2022-12-17T09:10:52;-2.40;99.90
30399;DHT22;17195;50.838;7.214;2022-12-17T09:13:36;-2.40;99.90
30399;DHT22;17195;50.838;7.214;2022-12-17T09:16:22;-2.40;99.90
30399;DHT22;17195;50.838;7.214;2022-12-17T09:19:08;-2.30;99.90
30399;DHT22;17195;50.838;7.214;2022-12-17T09:21:53;-2.20;99.90
30399;DHT22;17195;50.838;7.214;2022-12-17T09:24:37;-2.30;99.90
30399;DHT22;17195;50.838;7.214;2022-12-17T09:27:21;-2.30;99.90
30399;DHT22;17195;50.838;7.214;2022-12-17T09:30:06;-2.20;99.90
30399;DHT22;17195;50.838;7.214;2022-12-17T09:32:50;-2.20;99.90
30399;DHT22;17195;50.838;7.214;2022-12-17T09:35:37;-2.30;99.90
30399;DHT22;17195;50.838;7.214;2022-12-17T09:38:21;-2.20;99.90
30399;DHT22;17195;50.838;7.214;2022-12-17T09:41:25;-2.10;99.90
30399;DHT22;17195;50.838;7.214;2022-12-17T09:44:26;-1.90;99.90
30399;DHT22;17195;50.838;7.214;2022-12-17T09:50:15;-2.00;99.90
30399;DHT22;17195;50.838;7.214;2022-12-17T09:53:01;-2.00;99.90
30399;DHT22;17195;50.838;7.214;2022-12-17T09:55:49;-1.90;99.90
30399;DHT22;17195;50.838;7.214;2022-12-17T09:58:35;-1.90;99.90
30399;DHT22;17195;50.838;7.214;2022-12-17T10:01:25;-1.80;99.90
30399;DHT22;17195;50.838;7.214;2022-12-17T10:04:14;-1.90;99.90
30399;DHT22;17195;50.838;7.214;2022-12-17T10:07:00;-1.80;99.90
30399;DHT22;17195;50.838;7.214;2022-12-17T10:09:46;-1.70;99.90
30399;DHT22;17195;50.838;7.214;2022-12-17T10:12:32;-1.70;99.90
30399;DHT22;17195;50.838;7.214;2022-12-17T10:15:16;-1.50;99.90
30399;DHT22;17195;50.838;7.214;2022-12-17T10:18:06;-1.40;99.90
30399;DHT22;17195;50.838;7.214;2022-12-17T10:21:05;-1.30;99.90
30399;DHT22;17195;50.838;7.214;2022-12-17T10:23:50;-1.30;99.90
30399;DHT22;17195;50.838;7.214;2022-12-17T10:26:35;-1.20;99.90
30399;DHT22;17195;50.838;7.214;2022-12-17T10:29:24;-1.20;99.90
30399;DHT22;17195;50.838;7.214;2022-12-17T10:35:21;-1.30;99.90
30399;DHT22;17195;50.838;7.214;2022-12-17T10:38:24;-1.20;99.90
30399;DHT22;17195;50.838;7.214;2022-12-17T10:41:26;-1.30;99.90
30399;DHT22;17195;50.838;7.214;2022-12-17T10:44:28;-1.50;99.90
30399;DHT22;17195;50.838;7.214;2022-12-17T10:47:15;-1.50;99.90
30399;DHT22;17195;50.838;7.214;2022-12-17T10:50:02;-1.70;99.90
30399;DHT22;17195;50.838;7.214;2022-12-17T10:52:48;-1.70;99.90
30399;DHT22;17195;50.838;7.214;2022-12-17T10:55:33;-1.60;99.90
30399;DHT22;17195;50.838;7.214;2022-12-17T10:58:24;-1.60;99.90
30399;DHT22;17195;50.838;7.214;2022-12-17T11:01:21;-1.50;99.90
30399;DHT22;17195;50.838;7.214;2022-12-17T11:04:32;-1.60;99.90
30399;DHT22;17195;50.838;7.214;2022-12-17T11:07:20;-1.60;99.90
30399;DHT22;17195;50.838;7.214;2022-12-17T11:10:15;-1.60;99.90
30399;DHT22;17195;50.838;7.214;2022-12-17T11:13:03;-1.50;99.90
30399;DHT22;17195;50.838;7.214;2022-12-17T11:15:53;-1.50;99.90
30399;DHT22;17195;50.838;7.214;2022-12-17T11:18:42;-1.50;99.90
30399;DHT22;17195;50.838;7.214;2022-12-17T11:21:39;-1.50;99.90
30399;DHT22;17195;50.838;7.214;2022-12-17T11:24:28;-1.60;99.90
30399;DHT22;17195;50.838;7.214;2022-12-17T11:27:18;-1.50;99.90
30399;DHT22;17195;50.838;7.214;2022-12-17T11:30:14;-1.40;99.90
30399;DHT22;17195;50.838;7.214;2022-12-17T11:33:29;-1.40;99.90
30399;DHT22;17195;50.838;7.214;2022-12-17T11:36:25;-1.20;99.90
30399;DHT22;17195;50.838;7.214;2022-12-17T11:39:26;-1.10;99.90
30399;DHT22;17195;50.838;7.214;2022-12-17T11:42:44;-1.10;99.90
30399;DHT22;17195;50.838;7.214;2022-12-17T11:45:36;-1.00;99.90
30399;DHT22;17195;50.838;7.214;2022-12-17T11:48:27;-0.90;99.90
30399;DHT22;17195;50.838;7.214;2022-12-17T11:57:55;-0.70;99.90
30399;DHT22;17195;50.838;7.214;2022-12-17T12:03:54;-0.70;99.90
30399;DHT22;17195;50.838;7.214;2022-12-17T12:07:01;-0.50;99.90
30399;DHT22;17195;50.838;7.214;2022-12-17T12:09:59;-0.50;99.90
30399;DHT22;17195;50.838;7.214;2022-12-17T12:15:43;-0.50;99.90
30399;DHT22;17195;50.838;7.214;2022-12-17T12:18:52;-0.50;99.90
30399;DHT22;17195;50.838;7.214;2022-12-17T12:22:16;-0.40;99.90
30399;DHT22;17195;50.838;7.214;2022-12-17T12:25:17;-0.30;99.90
30399;DHT22;17195;50.838;7.214;2022-12-17T12:34:00;-0.50;99.90
30399;DHT22;17195;50.838;7.214;2022-12-17T12:36:47;-0.40;99.90
30399;DHT22;17195;50.838;7.214;2022-12-17T12:43:02;-0.20;99.90
30399;DHT22;17195;50.838;7.214;2022-12-17T12:46:00;-0.20;99.90
30399;DHT22;17195;50.838;7.214;2022-12-17T12:48:51;-0.10;99.90
30399;DHT22;17195;50.838;7.214;2022-12-17T12:51:38;-0.10;99.90
30399;DHT22;17195;50.838;7.214;2022-12-17T13:00:39;0.10;99.90
30399;DHT22;17195;50.838;7.214;2022-12-17T13:19:43;0.60;99.90
30399;DHT22;17195;50.838;7.214;2022-12-17T13:24:43;0.70;99.90
30399;DHT22;17195;50.838;7.214;2022-12-17T13:29:58;0.80;99.90
30399;DHT22;17195;50.838;7.214;2022-12-17T13:32:42;0.80;99.90
30399;DHT22;17195;50.838;7.214;2022-12-17T13:35:32;0.90;99.90
30399;DHT22;17195;50.838;7.214;2022-12-17T13:40:55;0.90;99.90
30399;DHT22;17195;50.838;7.214;2022-12-17T13:43:30;0.80;99.90
30399;DHT22;17195;50.838;7.214;2022-12-17T13:45:57;0.70;99.90
30399;DHT22;17195;50.838;7.214;2022-12-17T13:48:26;0.60;99.90
30399;DHT22;17195;50.838;7.214;2022-12-17T13:50:53;0.80;99.90
30399;DHT22;17195;50.838;7.214;2022-12-17T13:53:19;0.80;99.90
30399;DHT22;17195;50.838;7.214;2022-12-17T13:55:52;0.90;99.90
30399;DHT22;17195;50.838;7.214;2022-12-17T13:58:28;1.10;99.90
30399;DHT22;17195;50.838;7.214;2022-12-17T14:01:08;1.10;99.90
30399;DHT22;17195;50.838;7.214;2022-12-17T14:03:35;1.20;99.90
30399;DHT22;17195;50.838;7.214;2022-12-17T14:06:02;1.20;99.90
30399;DHT22;17195;50.838;7.214;2022-12-17T14:08:30;1.20;99.90
30399;DHT22;17195;50.838;7.214;2022-12-17T14:10:57;1.20;99.90
30399;DHT22;17195;50.838;7.214;2022-12-17T14:13:44;1.00;99.90
30399;DHT22;17195;50.838;7.214;2022-12-17T14:16:15;1.00;99.90
30399;DHT22;17195;50.838;7.214;2022-12-17T14:18:45;0.80;99.90
30399;DHT22;17195;50.838;7.214;2022-12-17T14:21:12;0.60;99.90
30399;DHT22;17195;50.838;7.214;2022-12-17T14:23:39;0.60;99.90
30399;DHT22;17195;50.838;7.214;2022-12-17T14:26:08;0.60;99.90
30399;DHT22;17195;50.838;7.214;2022-12-17T14:28:36;0.40;99.90
30399;DHT22;17195;50.838;7.214;2022-12-17T14:31:18;0.30;99.90
30399;DHT22;17195;50.838;7.214;2022-12-17T14:33:45;0.20;99.90
30399;DHT22;17195;50.838;7.214;2022-12-17T14:38:57;0.10;99.90
30399;DHT22;17195;50.838;7.214;2022-12-17T14:41:24;-0.10;99.90
30399;DHT22;17195;50.838;7.214;2022-12-17T14:44:15;-0.20;99.90
30399;DHT22;17195;50.838;7.214;2022-12-17T14:46:42;-0.20;99.90
30399;DHT22;17195;50.838;7.214;2022-12-17T14:49:16;-0.20;99.90
30399;DHT22;17195;50.838;7.214;2022-12-17T14:51:42;-0.30;99.90
30399;DHT22;17195;50.838;7.214;2022-12-17T14:56:51;-0.30;99.90
30399;DHT22;17195;50.838;7.214;2022-12-17T14:59:36;-0.40;99.90
30399;DHT22;17195;50.838;7.214;2022-12-17T15:04:43;-0.60;99.90
30399;DHT22;17195;50.838;7.214;2022-12-17T15:07:13;-0.70;99.90
30399;DHT22;17195;50.838;7.214;2022-12-17T15:09:39;-0.70;99.90
30399;DHT22;17195;50.838;7.214;2022-12-17T15:12:06;-0.70;99.90
30399;DHT22;17195;50.838;7.214;2022-12-17T15:14:32;-0.70;99.90
30399;DHT22;17195;50.838;7.214;2022-12-17T15:16:57;-0.90;99.90
30399;DHT22;17195;50.838;7.214;2022-12-17T15:19:25;-0.80;99.90
30399;DHT22;17195;50.838;7.214;2022-12-17T15:21:50;-0.90;99.90
30399;DHT22;17195;50.838;7.214;2022-12-17T15:24:19;-1.10;99.90
30399;DHT22;17195;50.838;7.214;2022-12-17T15:26:46;-1.20;99.90
30399;DHT22;17195;50.838;7.214;2022-12-17T15:29:12;-1.40;99.90
30399;DHT22;17195;50.838;7.214;2022-12-17T15:31:37;-1.40;99.90
30399;DHT22;17195;50.838;7.214;2022-12-17T15:34:03;-1.50;99.90
30399;DHT22;17195;50.838;7.214;2022-12-17T15:36:29;-1.60;99.90
30399;DHT22;17195;50.838;7.214;2022-12-17T15:38:56;-1.60;99.90
30399;DHT22;17195;50.838;7.214;2022-12-17T15:41:22;-1.70;99.90
30399;DHT22;17195;50.838;7.214;2022-12-17T15:44:06;-1.70;99.90
30399;DHT22;17195;50.838;7.214;2022-12-17T15:46:32;-1.80;99.90
30399;DHT22;17195;50.838;7.214;2022-12-17T15:48:57;-1.90;99.90
30399;DHT22;17195;50.838;7.214;2022-12-17T15:51:23;-1.90;99.90
30399;DHT22;17195;50.838;7.214;2022-12-17T15:53:49;-2.00;99.90
30399;DHT22;17195;50.838;7.214;2022-12-17T15:56:24;-2.20;99.90
30399;DHT22;17195;50.838;7.214;2022-12-17T15:58:50;-2.20;99.90
30399;DHT22;17195;50.838;7.214;2022-12-17T16:01:16;-2.30;99.90
30399;DHT22;17195;50.838;7.214;2022-12-17T16:03:41;-2.40;99.90
30399;DHT22;17195;50.838;7.214;2022-12-17T16:06:07;-2.40;99.90
30399;DHT22;17195;50.838;7.214;2022-12-17T16:08:33;-2.50;99.90
30399;DHT22;17195;50.838;7.214;2022-12-17T16:10:58;-2.50;99.90
30399;DHT22;17195;50.838;7.214;2022-12-17T16:13:24;-2.50;99.90
30399;DHT22;17195;50.838;7.214;2022-12-17T16:15:56;-2.60;99.90
30399;DHT22;17195;50.838;7.214;2022-12-17T16:18:22;-2.70;99.90
30399;DHT22;17195;50.838;7.214;2022-12-17T16:20:48;-2.70;99.90
30399;DHT22;17195;50.838;7.214;2022-12-17T16:23:14;-2.60;99.90
30399;DHT22;17195;50.838;7.214;2022-12-17T16:25:39;-2.70;99.90
30399;DHT22;17195;50.838;7.214;2022-12-17T16:28:05;-2.80;99.90
30399;DHT22;17195;50.838;7.214;2022-12-17T16:30:30;-2.80;99.90
30399;DHT22;17195;50.838;7.214;2022-12-17T16:32:59;-2.90;99.90
30399;DHT22;17195;50.838;7.214;2022-12-17T16:35:25;-3.00;99.90
30399;DHT22;17195;50.838;7.214;2022-12-17T16:37:53;-3.00;99.90
30399;DHT22;17195;50.838;7.214;2022-12-17T16:40:18;-3.10;99.90
30399;DHT22;17195;50.838;7.214;2022-12-17T16:42:44;-3.20;99.90
30399;DHT22;17195;50.838;7.214;2022-12-17T16:45:09;-3.20;99.90
30399;DHT22;17195;50.838;7.214;2022-12-17T16:47:35;-3.40;99.90
30399;DHT22;17195;50.838;7.214;2022-12-17T16:50:01;-3.40;99.90
30399;DHT22;17195;50.838;7.214;2022-12-17T16:52:26;-3.40;99.90
30399;DHT22;17195;50.838;7.214;2022-12-17T16:54:52;-3.50;99.90
30399;DHT22;17195;50.838;7.214;2022-12-17T16:57:17;-3.50;99.90
30399;DHT22;17195;50.838;7.214;2022-12-17T16:59:43;-3.60;99.90
30399;DHT22;17195;50.838;7.214;2022-12-17T17:02:12;-3.60;99.90
30399;DHT22;17195;50.838;7.214;2022-12-17T17:04:38;-3.70;99.90
30399;DHT22;17195;50.838;7.214;2022-12-17T17:07:04;-3.70;99.90
30399;DHT22;17195;50.838;7.214;2022-12-17T17:09:29;-3.60;99.90
30399;DHT22;17195;50.838;7.214;2022-12-17T17:11:55;-3.70;99.90
30399;DHT22;17195;50.838;7.214;2022-12-17T17:14:23;-3.70;99.90
30399;DHT22;17195;50.838;7.214;2022-12-17T17:16:49;-3.80;99.90
30399;DHT22;17195;50.838;7.214;2022-12-17T17:19:14;-3.80;99.90
30399;DHT22;17195;50.838;7.214;2022-12-17T17:21:41;-3.80;99.90
30399;DHT22;17195;50.838;7.214;2022-12-17T17:24:14;-3.90;99.90
30399;DHT22;17195;50.838;7.214;2022-12-17T17:26:40;-4.00;99.90
30399;DHT22;17195;50.838;7.214;2022-12-17T17:29:06;-4.10;99.90
30399;DHT22;17195;50.838;7.214;2022-12-17T17:31:33;-4.10;99.90
30399;DHT22;17195;50.838;7.214;2022-12-17T17:33:59;-4.20;99.90
30399;DHT22;17195;50.838;7.214;2022-12-17T17:36:28;-4.10;99.90
30399;DHT22;17195;50.838;7.214;2022-12-17T17:38:56;-4.20;99.90
30399;DHT22;17195;50.838;7.214;2022-12-17T17:41:24;-4.30;99.90
30399;DHT22;17195;50.838;7.214;2022-12-17T17:44:01;-4.30;99.90
30399;DHT22;17195;50.838;7.214;2022-12-17T17:46:28;-4.40;99.90
30399;DHT22;17195;50.838;7.214;2022-12-17T17:48:59;-4.40;99.90
30399;DHT22;17195;50.838;7.214;2022-12-17T17:51:27;-4.40;99.90
30399;DHT22;17195;50.838;7.214;2022-12-17T17:53:53;-4.40;99.90
30399;DHT22;17195;50.838;7.214;2022-12-17T17:56:30;-4.40;99.90
30399;DHT22;17195;50.838;7.214;2022-12-17T17:58:59;-4.40;99.90
30399;DHT22;17195;50.838;7.214;2022-12-17T18:01:27;-4.40;99.90
30399;DHT22;17195;50.838;7.214;2022-12-17T18:03:58;-4.40;99.90
30399;DHT22;17195;50.838;7.214;2022-12-17T18:06:24;-4.40;99.90
30399;DHT22;17195;50.838;7.214;2022-12-17T18:08:50;-4.50;99.90
30399;DHT22;17195;50.838;7.214;2022-12-17T18:11:18;-4.50;99.90
30399;DHT22;17195;50.838;7.214;2022-12-17T18:13:44;-4.50;99.90
30399;DHT22;17195;50.838;7.214;2022-12-17T18:16:20;-4.60;99.90
30399;DHT22;17195;50.838;7.214;2022-12-17T18:18:46;-4.60;99.90